Time;durP1;ratioP1;P1;durP2;ratioP2;P2;SDS_P1;SDS_P2;PMS_P1;PMS_P2;Temp;Humidity;BMP_temperature;BMP_pressure;BME280_temperature;BME280_humidity;BME280_pressure;Samples;Min_cycle;Max_cycle;Signal;HPM_P1;HPM_P2
2021/05/17 00:01:05;;;;;;;2.85;1.65;;;10.20;99.90;;;;;;5027567;28;20046;-84
2021/05/17 00:03:31;;;;;;;4.22;1.92;;;10.20;99.90;;;;;;5010160;28;20486;-84
2021/05/17 00:06:26;;;;;;;5.78;1.77;;;10.30;99.90;;;;;;5027500;28;20030;-84
2021/05/17 00:08:53;;;;;;;5.32;1.58;;;10.20;99.90;;;;;;4928061;29;20160;-86
2021/05/17 00:11:19;;;;;;;3.00;1.73;;;10.20;99.90;;;;;;4928764;29;20147;-85
2021/05/17 00:13:44;;;;;;;3.65;1.77;;;10.20;99.90;;;;;;4928412;29;20633;-85
2021/05/17 00:16:10;;;;;;;3.88;1.33;;;10.20;99.90;;;;;;4928527;29;20072;-84
2021/05/17 00:18:36;;;;;;;3.67;1.73;;;10.30;99.90;;;;;;4928258;29;20032;-86
2021/05/17 00:21:03;;;;;;;2.50;1.40;;;10.30;99.90;;;;;;4928455;29;20072;-85
2021/05/17 00:23:29;;;;;;;2.53;1.42;;;10.30;99.90;;;;;;4928095;29;20043;-86
2021/05/17 00:25:55;;;;;;;3.55;1.33;;;10.30;99.90;;;;;;4928188;29;20130;-85
2021/05/17 00:28:21;;;;;;;3.28;1.30;;;10.30;99.90;;;;;;4927966;29;20032;-86
2021/05/17 00:30:46;;;;;;;2.95;1.20;;;10.30;99.90;;;;;;4912385;29;20050;-85
2021/05/17 00:33:12;;;;;;;2.78;1.30;;;10.30;99.90;;;;;;4927899;29;20040;-82
2021/05/17 00:35:38;;;;;;;2.75;1.40;;;10.30;99.90;;;;;;4928007;29;20535;-82
2021/05/17 00:38:04;;;;;;;2.70;1.20;;;10.30;99.90;;;;;;4927679;29;20040;-84
2021/05/17 00:40:30;;;;;;;2.33;1.48;;;10.40;99.90;;;;;;4927530;29;20060;-85
2021/05/17 00:42:56;;;;;;;3.92;1.15;;;10.40;99.90;;;;;;4927615;29;20032;-85
2021/05/17 00:45:22;;;;;;;2.58;1.15;;;10.30;99.90;;;;;;4952863;28;20129;-83
2021/05/17 00:47:50;;;;;;;3.30;1.50;;;10.40;99.90;;;;;;4989292;28;20059;-83
2021/05/17 00:50:22;;;;;;;3.40;1.92;;;10.40;99.90;;;;;;4989437;28;20030;-83
2021/05/17 00:52:48;;;;;;;3.95;1.70;;;10.40;99.90;;;;;;4989425;28;20026;-84
2021/05/17 00:55:15;;;;;;;3.03;1.80;;;10.40;99.90;;;;;;4973538;28;20026;-86
2021/05/17 00:57:41;;;;;;;3.80;1.90;;;10.40;99.90;;;;;;4989032;28;20027;-82
2021/05/17 01:00:10;;;;;;;4.10;2.47;;;10.40;99.90;;;;;;5006578;28;20034;-83
2021/05/17 01:02:43;;;;;;;4.25;2.70;;;10.40;99.90;;;;;;4989251;28;20027;-82
2021/05/17 01:05:18;;;;;;;4.15;1.98;;;10.40;99.90;;;;;;4989329;28;20121;-83
2021/05/17 01:07:48;;;;;;;4.03;2.03;;;10.40;99.90;;;;;;4988643;28;20089;-83
2021/05/17 01:10:23;;;;;;;3.30;1.95;;;10.40;99.90;;;;;;5006496;28;20032;-83
2021/05/17 01:12:50;;;;;;;3.72;2.10;;;10.30;99.90;;;;;;4989076;28;20033;-82
2021/05/17 01:15:18;;;;;;;2.90;1.73;;;10.40;99.90;;;;;;4989039;28;20030;-85
2021/05/17 01:17:44;;;;;;;3.45;2.10;;;10.40;99.90;;;;;;4988826;28;20018;-84
2021/05/17 01:20:17;;;;;;;3.65;1.73;;;10.40;99.90;;;;;;4988917;28;20543;-83
2021/05/17 01:22:59;;;;;;;2.70;1.45;;;10.40;99.90;;;;;;4988945;28;20410;-83
2021/05/17 01:25:27;;;;;;;3.72;1.50;;;10.30;99.90;;;;;;5019558;28;20034;-82
2021/05/17 01:27:56;;;;;;;3.25;1.60;;;10.40;99.90;;;;;;5008571;28;20444;-84
2021/05/17 01:30:24;;;;;;;3.97;1.35;;;10.30;99.90;;;;;;5008624;28;20053;-85
2021/05/17 01:32:52;;;;;;;3.33;1.80;;;10.30;99.90;;;;;;5026506;28;20034;-85
2021/05/17 01:35:19;;;;;;;3.10;1.40;;;10.20;99.90;;;;;;5027656;28;20085;-85
2021/05/17 01:37:46;;;;;;;2.05;0.93;;;10.20;99.90;;;;;;5008004;28;20026;-83
2021/05/17 01:40:18;;;;;;;3.42;2.45;;;10.20;99.90;;;;;;5008003;28;20088;-84
2021/05/17 01:42:44;;;;;;;3.63;1.80;;;10.20;99.90;;;;;;5008303;28;20025;-83
2021/05/17 01:45:11;;;;;;;2.25;1.27;;;10.20;99.90;;;;;;5025964;28;20025;-85
2021/05/17 01:47:47;;;;;;;4.18;1.67;;;10.20;99.90;;;;;;5008160;28;20045;-82
2021/05/17 01:50:16;;;;;;;4.30;1.80;;;10.20;99.90;;;;;;4992033;28;20030;-83
2021/05/17 01:52:42;;;;;;;2.90;1.88;;;10.20;99.90;;;;;;5008141;28;20037;-83
2021/05/17 01:55:10;;;;;;;2.70;2.00;;;10.20;99.90;;;;;;5025884;28;20050;-83
2021/05/17 01:57:37;;;;;;;4.30;2.05;;;10.20;99.90;;;;;;5029720;28;20022;-82
2021/05/17 02:00:08;;;;;;;2.60;1.63;;;10.20;99.90;;;;;;5029532;28;20095;-84
2021/05/17 02:02:39;;;;;;;2.83;1.83;;;10.20;99.90;;;;;;5029706;28;20038;-83
2021/05/17 02:05:07;;;;;;;3.13;1.75;;;10.20;99.90;;;;;;5011971;28;20034;-82
2021/05/17 02:07:33;;;;;;;3.65;1.85;;;10.20;99.90;;;;;;5046433;22;20585;-83
2021/05/17 02:10:01;;;;;;;1.92;1.10;;;10.20;99.90;;;;;;5015299;28;20037;-82
2021/05/17 02:12:32;;;;;;;2.38;1.67;;;10.20;99.90;;;;;;5015548;28;20052;-80
2021/05/17 02:15:07;;;;;;;3.45;1.85;;;10.20;99.90;;;;;;5049628;28;20033;-83
2021/05/17 02:17:35;;;;;;;3.38;1.63;;;10.10;99.90;;;;;;5031729;28;20029;-82
2021/05/17 02:20:02;;;;;;;3.55;1.38;;;10.10;99.90;;;;;;5015277;28;20052;-83
2021/05/17 02:22:35;;;;;;;2.60;1.35;;;10.00;99.90;;;;;;5016364;28;20093;-83
2021/05/17 02:25:22;;;;;;;3.60;1.73;;;10.00;99.90;;;;;;5020865;28;20034;-83
2021/05/17 02:27:50;;;;;;;2.58;1.35;;;10.10;99.90;;;;;;5028138;28;20187;-83
2021/05/17 02:30:16;;;;;;;4.15;1.67;;;10.10;99.90;;;;;;5028622;28;20038;-83
2021/05/17 02:32:43;;;;;;;2.65;1.27;;;10.00;99.90;;;;;;5029608;28;20026;-84
2021/05/17 02:35:13;;;;;;;5.40;1.53;;;10.00;99.90;;;;;;5028380;28;20036;-84
2021/05/17 02:37:38;;;;;;;3.00;1.85;;;10.00;99.90;;;;;;5029428;28;20029;-83
2021/05/17 02:40:06;;;;;;;2.63;1.77;;;10.10;99.90;;;;;;5041795;28;20075;-82
2021/05/17 02:42:35;;;;;;;;;;;10.10;99.90;;;;;;5031582;28;20071;-84
2021/05/17 02:45:06;;;;;;;2.78;1.60;;;10.00;99.90;;;;;;5031154;28;19909;-84
2021/05/17 02:47:38;;;;;;;3.08;1.27;;;10.00;99.90;;;;;;5031019;28;20039;-82
2021/05/17 02:50:06;;;;;;;3.65;2.13;;;10.00;99.90;;;;;;5048739;28;20033;-84
2021/05/17 02:52:32;;;;;;;2.80;1.90;;;9.90;99.90;;;;;;5048734;28;20056;-84
2021/05/17 02:55:13;;;;;;;4.70;2.63;;;9.90;99.90;;;;;;5031005;28;20053;-84
2021/05/17 02:58:06;;;;;;;3.63;2.42;;;9.90;99.90;;;;;;5030563;28;20037;-82
2021/05/17 03:00:36;;;;;;;3.95;2.45;;;9.90;99.90;;;;;;5014243;28;20033;-84
2021/05/17 03:03:23;;;;;;;3.58;1.85;;;9.90;99.90;;;;;;5047275;28;20026;-82
2021/05/17 03:06:34;;;;;;;5.15;1.70;;;10.00;99.90;;;;;;5048196;28;20497;-82
2021/05/17 03:09:07;;;;;;;4.53;2.08;;;10.00;99.90;;;;;;4932241;29;20043;-83
2021/05/17 03:11:42;;;;;;;3.22;2.22;;;10.00;99.90;;;;;;4932623;29;20032;-84
2021/05/17 03:14:10;;;;;;;4.50;2.08;;;10.00;99.90;;;;;;4948363;29;20488;-83
2021/05/17 03:16:39;;;;;;;3.78;1.95;;;10.00;99.90;;;;;;4932256;29;20038;-84
2021/05/17 03:19:06;;;;;;;3.35;2.00;;;10.10;99.90;;;;;;4948132;29;20252;-83
2021/05/17 03:21:34;;;;;;;3.42;2.35;;;10.00;99.90;;;;;;4948412;29;20628;-83
2021/05/17 03:24:00;;;;;;;3.70;2.50;;;10.10;99.90;;;;;;4948161;29;20043;-83
2021/05/17 03:26:27;;;;;;;3.70;2.67;;;10.10;99.90;;;;;;4948164;29;20043;-83
2021/05/17 03:28:53;;;;;;;5.00;1.88;;;10.10;99.90;;;;;;4947759;29;20046;-83
2021/05/17 03:31:19;;;;;;;6.47;2.65;;;10.10;99.90;;;;;;4948299;29;20115;-83
2021/05/17 03:33:44;;;;;;;3.95;2.80;;;10.10;99.90;;;;;;4948285;29;20074;-82
2021/05/17 03:36:10;;;;;;;4.68;3.15;;;10.10;99.90;;;;;;4931776;29;20040;-83
2021/05/17 03:38:38;;;;;;;5.22;3.47;;;10.10;99.90;;;;;;4947797;29;20046;-86
2021/05/17 03:41:04;;;;;;;5.55;3.45;;;10.10;99.90;;;;;;4931909;29;20047;-83
2021/05/17 03:43:30;;;;;;;5.43;2.90;;;10.10;99.90;;;;;;4916171;29;20036;-83
2021/05/17 03:45:55;;;;;;;4.53;3.42;;;10.10;99.90;;;;;;4976701;28;20049;-84
2021/05/17 03:48:21;;;;;;;3.83;2.85;;;10.10;99.90;;;;;;5010760;28;20089;-84
2021/05/17 03:50:47;;;;;;;4.47;2.75;;;10.10;99.90;;;;;;5011731;28;20042;-85
2021/05/17 03:53:12;;;;;;;4.25;2.35;;;10.10;99.90;;;;;;5027775;28;20548;-83
2021/05/17 03:55:38;;;;;;;6.60;3.33;;;10.20;99.90;;;;;;5027589;28;20062;-84
2021/05/17 03:58:03;;;;;;;5.43;2.33;;;10.20;99.90;;;;;;5027569;28;20021;-84
2021/05/17 04:00:31;;;;;;;6.18;2.85;;;10.10;99.90;;;;;;5027282;28;20516;-84
2021/05/17 04:02:59;;;;;;;9.32;3.95;;;10.20;99.90;;;;;;5009829;28;20540;-84
2021/05/17 04:05:35;;;;;;;4.28;2.38;;;10.20;99.90;;;;;;5009985;28;20030;-82
2021/05/17 04:13:30;;;;;;;5.53;2.80;;;10.20;99.90;;;;;;5027222;28;20040;-84
2021/05/17 04:15:56;;;;;;;5.20;2.20;;;10.20;99.90;;;;;;4993271;28;20034;-83
2021/05/17 04:18:22;;;;;;;5.10;2.10;;;10.20;99.90;;;;;;5008239;28;20083;-82
2021/05/17 04:20:49;;;;;;;3.72;1.63;;;10.20;99.90;;;;;;4993090;28;20065;-84
2021/05/17 04:23:19;;;;;;;3.95;1.92;;;10.30;99.90;;;;;;4993106;28;20026;-83
2021/05/17 04:25:45;;;;;;;2.90;1.83;;;10.30;99.90;;;;;;5006172;28;20060;-84
2021/05/17 04:28:10;;;;;;;3.90;2.00;;;10.30;99.90;;;;;;4973641;28;20042;-84
2021/05/17 04:30:36;;;;;;;4.10;1.80;;;10.40;99.90;;;;;;4973750;28;20034;-85
2021/05/17 04:33:02;;;;;;;3.78;1.42;;;10.40;99.90;;;;;;4990908;28;20484;-83
2021/05/17 04:35:27;;;;;;;3.47;1.20;;;10.40;99.90;;;;;;5026181;28;20113;-83
2021/05/17 04:37:53;;;;;;;3.33;1.30;;;10.40;99.90;;;;;;5024926;28;20037;-83
2021/05/17 04:40:30;;;;;;;4.03;1.25;;;10.40;99.90;;;;;;5044823;27;693785;-83
2021/05/17 04:42:56;;;;;;;4.45;1.52;;;10.40;99.90;;;;;;5044643;28;20033;-84
2021/05/17 04:45:24;;;;;;;4.07;0.85;;;10.40;99.90;;;;;;5062143;28;20109;-83
2021/05/17 04:47:53;;;;;;;2.10;0.90;;;10.40;99.90;;;;;;5062263;28;20513;-83
2021/05/17 04:50:20;;;;;;;5.30;0.98;;;10.40;99.90;;;;;;5036783;28;20038;-83
2021/05/17 04:52:45;;;;;;;3.88;1.20;;;10.50;99.90;;;;;;5024609;28;20026;-83
2021/05/17 04:55:11;;;;;;;3.03;0.75;;;10.50;99.90;;;;;;5042539;28;20034;-83
2021/05/17 04:57:37;;;;;;;2.45;0.82;;;10.50;99.90;;;;;;5042181;28;20093;-82
2021/05/17 05:00:07;;;;;;;5.20;1.10;;;10.60;99.90;;;;;;5024740;28;20064;-82
2021/05/17 05:05:02;;;;;;;2.28;0.98;;;10.60;99.90;;;;;;5040584;28;20084;-83
2021/05/17 05:07:28;;;;;;;2.80;1.02;;;10.60;99.90;;;;;;5041872;28;20025;-83
2021/05/17 05:09:53;;;;;;;2.35;0.90;;;10.60;99.90;;;;;;5042276;28;20394;-82
2021/05/17 05:12:19;;;;;;;3.00;1.05;;;10.60;99.90;;;;;;5042179;28;20378;-83
2021/05/17 05:14:44;;;;;;;2.55;0.70;;;10.60;99.90;;;;;;5040647;28;20044;-83
2021/05/17 05:17:10;;;;;;;3.17;0.93;;;10.60;99.90;;;;;;5040328;28;20042;-81
2021/05/17 05:19:36;;;;;;;3.72;0.80;;;10.70;99.90;;;;;;5039649;28;20037;-84
2021/05/17 05:22:02;;;;;;;2.95;1.08;;;10.70;99.90;;;;;;5040083;28;20033;-84
2021/05/17 05:24:27;;;;;;;3.28;0.70;;;10.80;99.90;;;;;;5035353;28;20053;-83
2021/05/17 05:29:58;;;;;;;3.60;0.70;;;10.80;99.90;;;;;;5021974;28;20034;-83
2021/05/17 05:32:31;;;;;;;2.75;0.95;;;10.90;99.90;;;;;;5020370;28;20398;-84
2021/05/17 05:34:57;;;;;;;5.30;0.88;;;10.90;99.90;;;;;;5021997;28;20086;-83
2021/05/17 05:37:23;;;;;;;4.15;1.08;;;11.00;99.90;;;;;;5021434;28;20026;-82
2021/05/17 05:39:48;;;;;;;2.92;0.80;;;11.00;99.90;;;;;;5031945;28;20095;-83
2021/05/17 05:42:14;;;;;;;2.13;1.13;;;11.00;99.90;;;;;;5041532;28;20121;-82
2021/05/17 05:44:44;;;;;;;4.90;1.02;;;11.10;99.90;;;;;;5024081;28;20045;-83
2021/05/17 05:47:17;;;;;;;;;;;11.20;99.90;;;;;;5040025;28;20367;-82
2021/05/17 05:49:48;;;;;;;2.42;0.82;;;11.20;99.90;;;;;;5040160;28;19964;-81
2021/05/17 05:52:16;;;;;;;3.80;0.80;;;11.20;99.90;;;;;;5026604;28;20033;-83
2021/05/17 05:54:43;;;;;;;1.85;0.77;;;11.20;99.90;;;;;;5010514;28;20030;-80
2021/05/17 05:57:09;;;;;;;2.83;1.05;;;11.20;99.90;;;;;;5028034;28;20069;-79
2021/05/17 05:59:35;;;;;;;5.38;1.20;;;11.30;99.90;;;;;;5027793;28;20116;-84
2021/05/17 06:02:01;;;;;;;2.47;0.93;;;11.20;99.90;;;;;;5009861;28;20030;-83
2021/05/17 06:04:27;;;;;;;4.57;1.08;;;11.20;99.90;;;;;;5026539;28;20504;-83
2021/05/17 06:06:53;;;;;;;3.25;1.00;;;11.20;99.90;;;;;;5009885;28;20101;-83
2021/05/17 06:09:19;;;;;;;3.28;0.90;;;11.30;99.90;;;;;;5026300;28;20129;-82
2021/05/17 06:11:44;;;;;;;3.20;1.40;;;11.30;99.90;;;;;;5026671;28;20198;-83
2021/05/17 06:14:11;;;;;;;4.53;1.33;;;11.30;99.90;;;;;;5026652;28;20117;-83
2021/05/17 06:16:37;;;;;;;3.70;1.02;;;11.30;99.90;;;;;;5025691;28;20057;-81
2021/05/17 06:19:04;;;;;;;5.88;1.58;;;11.30;99.90;;;;;;5026151;28;20191;-80
2021/05/17 06:21:30;;;;;;;2.25;0.80;;;11.40;99.90;;;;;;5026283;28;20490;-83
2021/05/17 06:23:57;;;;;;;3.65;1.05;;;11.30;99.90;;;;;;5026313;28;20402;-82
2021/05/17 06:26:24;;;;;;;2.42;0.93;;;11.40;99.90;;;;;;5025998;28;20715;-81
2021/05/17 06:28:50;;;;;;;4.38;1.08;;;11.50;99.90;;;;;;5025799;28;20065;-81
2021/05/17 06:31:16;;;;;;;3.80;1.17;;;11.50;99.90;;;;;;5026005;28;20034;-82
2021/05/17 06:33:44;;;;;;;3.08;1.00;;;11.50;99.90;;;;;;5026139;28;20036;-83
2021/05/17 06:36:12;;;;;;;2.95;1.20;;;11.60;99.90;;;;;;5027033;28;20053;-82
2021/05/17 06:38:41;;;;;;;3.42;0.80;;;11.70;99.90;;;;;;5027195;28;20045;-85
2021/05/17 06:41:08;;;;;;;4.78;1.30;;;11.80;99.90;;;;;;5027367;28;20022;-83
2021/05/17 06:43:35;;;;;;;3.88;0.98;;;11.90;99.90;;;;;;5027080;28;20048;-82
2021/05/17 06:46:03;;;;;;;4.35;1.20;;;11.80;99.90;;;;;;5025998;28;20026;-84
2021/05/17 06:48:29;;;;;;;3.83;1.23;;;11.70;99.90;;;;;;5026521;28;20052;-81
2021/05/17 06:50:55;;;;;;;3.95;1.00;;;11.80;99.90;;;;;;5026947;28;20030;-82
2021/05/17 06:53:21;;;;;;;5.50;1.15;;;11.90;99.90;;;;;;5026671;28;20026;-81
2021/05/17 06:56:01;;;;;;;3.20;1.00;;;12.00;99.90;;;;;;5026621;28;20037;-81
2021/05/17 06:58:34;;;;;;;5.60;1.00;;;12.10;99.90;;;;;;5025298;28;20110;-82
2021/05/17 07:01:00;;;;;;;3.92;1.20;;;12.10;99.90;;;;;;5026658;28;20062;-80
2021/05/17 07:03:26;;;;;;;3.15;1.00;;;12.10;99.90;;;;;;5024212;28;20045;-81
2021/05/17 07:06:17;;;;;;;1.90;0.70;;;12.20;99.90;;;;;;5025108;28;20041;-80
2021/05/17 07:11:35;;;;;;;2.75;0.65;;;12.20;99.90;;;;;;4988416;28;20058;-81
2021/05/17 07:14:00;;;;;;;3.88;1.10;;;12.30;99.90;;;;;;4988325;28;20050;-81
2021/05/17 07:16:26;;;;;;;2.50;0.77;;;12.20;99.90;;;;;;4987896;28;20049;-83
2021/05/17 07:18:52;;;;;;;2.30;0.80;;;12.30;99.90;;;;;;4942754;28;20066;-79
2021/05/17 07:23:43;;;;;;;3.15;1.10;;;12.30;99.90;;;;;;4965484;29;20050;-81
2021/05/17 07:26:16;;;;;;;2.58;0.95;;;12.10;99.90;;;;;;4965392;29;20522;-80
2021/05/17 07:28:43;;;;;;;3.25;0.70;;;12.20;99.90;;;;;;4965299;29;20051;-82
2021/05/17 07:31:09;;;;;;;5.75;1.65;;;12.40;99.90;;;;;;4965236;29;20041;-81
2021/05/17 07:33:39;;;;;;;4.38;0.63;;;12.40;99.90;;;;;;4965048;29;20047;-83
2021/05/17 07:36:05;;;;;;;6.25;0.93;;;12.40;99.90;;;;;;4949209;29;20031;-82
2021/05/17 07:38:31;;;;;;;3.53;0.80;;;12.30;99.90;;;;;;4964973;29;20056;-81
2021/05/17 07:40:59;;;;;;;4.60;0.90;;;12.30;99.90;;;;;;4965287;29;20031;-81
2021/05/17 07:43:25;;;;;;;4.30;0.80;;;12.30;99.90;;;;;;4965194;29;20046;-80
2021/05/17 07:45:51;;;;;;;2.13;0.80;;;12.30;99.90;;;;;;4977067;28;20534;-82
2021/05/17 07:48:18;;;;;;;3.88;0.93;;;12.20;99.90;;;;;;5001069;28;20031;-81
2021/05/17 07:50:44;;;;;;;2.65;0.70;;;12.20;99.90;;;;;;4986882;28;20066;-81
2021/05/17 07:53:12;;;;;;;2.55;0.80;;;12.40;99.90;;;;;;4986908;28;20031;-83
2021/05/17 07:55:39;;;;;;;4.63;0.85;;;12.30;99.90;;;;;;4986816;28;20038;-82
2021/05/17 07:58:05;;;;;;;2.92;0.63;;;12.30;99.90;;;;;;4986486;28;20122;-82
2021/05/17 08:00:31;;;;;;;2.92;0.60;;;12.30;99.90;;;;;;4985549;28;20112;-81
2021/05/17 08:02:56;;;;;;;5.88;0.70;;;12.40;99.90;;;;;;4986578;28;20027;-81
2021/05/17 08:05:22;;;;;;;3.72;0.80;;;12.50;99.90;;;;;;4986620;28;20383;-82
2021/05/17 08:07:48;;;;;;;6.18;1.00;;;12.60;99.90;;;;;;5001022;28;20058;-83
2021/05/17 08:10:14;;;;;;;4.13;1.30;;;12.50;99.90;;;;;;4986346;28;20043;-82
2021/05/17 08:12:40;;;;;;;3.10;0.80;;;12.50;99.90;;;;;;4985105;28;20062;-81
2021/05/17 08:15:07;;;;;;;2.88;0.60;;;12.40;99.90;;;;;;4984864;28;20031;-84
2021/05/17 08:17:33;;;;;;;2.92;0.75;;;12.40;99.90;;;;;;5001025;28;20035;-80
2021/05/17 08:20:00;;;;;;;3.55;0.60;;;12.30;99.90;;;;;;4984916;28;20049;-82
2021/05/17 08:22:25;;;;;;;3.30;0.57;;;12.30;99.90;;;;;;4986222;28;20119;-82
2021/05/17 08:24:53;;;;;;;2.80;0.70;;;12.40;99.90;;;;;;4986226;28;20038;-81
2021/05/17 08:27:18;;;;;;;4.93;0.82;;;12.50;99.90;;;;;;5000909;28;20081;-81
2021/05/17 08:29:44;;;;;;;3.45;0.50;;;12.60;99.90;;;;;;4986112;28;20031;-82
2021/05/17 08:32:10;;;;;;;2.97;0.50;;;12.70;99.90;;;;;;4986236;28;20035;-80
2021/05/17 08:34:36;;;;;;;2.83;0.40;;;12.80;99.90;;;;;;4984540;28;20030;-82
2021/05/17 08:37:03;;;;;;;3.30;0.55;;;13.00;99.90;;;;;;4986114;28;20034;-81
2021/05/17 08:39:29;;;;;;;2.55;0.70;;;13.20;99.90;;;;;;5000705;28;20042;-81
2021/05/17 08:41:58;;;;;;;3.58;0.60;;;13.40;99.90;;;;;;4986069;28;20027;-81
2021/05/17 08:44:25;;;;;;;3.30;1.23;;;13.60;99.90;;;;;;4986236;28;20058;-83
2021/05/17 08:46:51;;;;;;;2.75;0.60;;;13.80;99.90;;;;;;5000843;28;20052;-82
2021/05/17 08:49:18;;;;;;;3.22;0.60;;;13.90;99.90;;;;;;5000727;28;20535;-83
2021/05/17 08:51:44;;;;;;;2.45;0.50;;;14.50;99.90;;;;;;5000908;28;20031;-82
2021/05/17 08:54:10;;;;;;;1.48;0.40;;;14.70;99.90;;;;;;4985979;28;20383;-81
2021/05/17 08:56:42;;;;;;;2.45;0.60;;;14.70;99.90;;;;;;5000853;28;20480;-81
2021/05/17 08:59:08;;;;;;;1.83;0.40;;;14.70;99.90;;;;;;5000495;28;20039;-81
2021/05/17 09:01:34;;;;;;;5.38;0.90;;;13.80;99.90;;;;;;4986065;28;20058;-86
2021/05/17 09:04:01;;;;;;;3.97;0.40;;;12.90;99.90;;;;;;5000765;28;20115;-83
2021/05/17 09:06:41;;;;;;;4.63;0.43;;;12.80;99.90;;;;;;4985730;28;20038;-82
2021/05/17 09:09:34;;;;;;;2.83;0.40;;;12.70;99.90;;;;;;4984524;28;20027;-83
2021/05/17 09:12:05;;;;;;;1.58;0.50;;;13.00;99.90;;;;;;5001150;28;20035;-84
2021/05/17 09:14:32;;;;;;;1.90;0.60;;;13.20;99.90;;;;;;5000942;28;20042;-83
2021/05/17 09:17:10;;;;;;;2.70;0.52;;;13.10;99.90;;;;;;4984697;28;20030;-84
2021/05/17 09:19:38;;;;;;;4.03;0.60;;;13.40;99.90;;;;;;4984504;28;20059;-83
2021/05/17 09:22:19;;;;;;;3.28;0.80;;;13.50;99.90;;;;;;4984544;28;20063;-84
2021/05/17 09:24:46;;;;;;;1.85;0.60;;;13.80;99.90;;;;;;4984835;28;20034;-84
2021/05/17 09:27:32;;;;;;;2.85;0.60;;;13.60;99.90;;;;;;4989444;28;20057;-84
2021/05/17 09:30:03;;;;;;;1.85;0.60;;;13.90;99.90;;;;;;4971871;28;20043;-84
2021/05/17 09:32:36;;;;;;;3.63;0.50;;;14.10;99.90;;;;;;4989427;28;20036;-83
2021/05/17 09:35:15;;;;;;;4.00;0.60;;;14.40;99.90;;;;;;5004027;28;20031;-81
2021/05/17 09:37:48;;;;;;;3.97;0.57;;;14.70;99.90;;;;;;5004128;28;20506;-82
2021/05/17 09:40:26;;;;;;;2.20;0.68;;;15.30;99.90;;;;;;5003865;28;20050;-82
2021/05/17 09:43:03;;;;;;;2.70;0.60;;;14.70;99.90;;;;;;4989408;28;20546;-82
2021/05/17 09:45:30;;;;;;;2.30;0.70;;;14.90;99.90;;;;;;4989051;28;20064;-81
2021/05/17 09:47:56;;;;;;;2.38;1.13;;;15.50;99.90;;;;;;4989170;28;20037;-82
2021/05/17 09:50:22;;;;;;;1.35;0.60;;;15.30;99.90;;;;;;4988977;28;20034;-81
2021/05/17 09:52:48;;;;;;;2.40;0.50;;;15.50;99.90;;;;;;5004194;28;20056;-83
2021/05/17 09:55:13;;;;;;;2.58;0.68;;;15.30;99.90;;;;;;5003878;28;20055;-81
2021/05/17 09:57:41;;;;;;;1.88;0.60;;;15.20;99.90;;;;;;4988798;28;20055;-83
2021/05/17 10:00:15;;;;;;;3.42;0.70;;;14.50;99.90;;;;;;5003522;28;20046;-83
2021/05/17 10:02:48;;;;;;;2.60;0.70;;;14.60;99.90;;;;;;4987793;28;20035;-82
2021/05/17 10:05:16;;;;;;;4.18;1.27;;;14.40;99.90;;;;;;4988284;28;20051;-81
2021/05/17 10:07:45;;;;;;;1.65;0.70;;;14.40;99.90;;;;;;5003336;28;20041;-81
2021/05/17 10:10:12;;;;;;;2.33;0.77;;;14.20;99.90;;;;;;4987272;28;20038;-83
2021/05/17 10:12:38;;;;;;;2.08;0.50;;;14.20;99.90;;;;;;4987207;28;20081;-83
2021/05/17 10:15:07;;;;;;;3.30;0.73;;;14.30;99.90;;;;;;4987591;28;20053;-82
2021/05/17 10:17:34;;;;;;;4.13;0.50;;;14.20;99.90;;;;;;5003307;28;20124;-81
2021/05/17 10:20:06;;;;;;;1.38;0.47;;;14.40;99.90;;;;;;4988476;28;20130;-82
2021/05/17 10:22:33;;;;;;;2.50;0.60;;;14.70;99.90;;;;;;4988347;28;20519;-82
2021/05/17 10:25:00;;;;;;;1.90;0.60;;;14.50;99.90;;;;;;5003212;28;20035;-82
2021/05/17 10:27:28;;;;;;;1.67;0.40;;;14.00;99.90;;;;;;5003078;28;20031;-82
2021/05/17 10:30:09;;;;;;;1.33;0.40;;;14.10;99.90;;;;;;5003147;28;20039;-83
2021/05/17 10:32:55;;;;;;;1.30;0.40;;;14.20;99.90;;;;;;4987006;28;20542;-81
2021/05/17 10:35:30;;;;;;;2.40;0.50;;;14.20;99.90;;;;;;5003011;28;20042;-81
2021/05/17 10:38:19;;;;;;;1.80;0.55;;;14.10;99.90;;;;;;4986491;28;20122;-82
2021/05/17 10:40:48;;;;;;;3.58;0.45;;;14.40;99.90;;;;;;5002705;28;20042;-82
2021/05/17 10:43:22;;;;;;;2.20;0.73;;;14.40;99.90;;;;;;4986725;28;20123;-82
2021/05/17 10:48:34;;;;;;;2.10;0.40;;;14.30;99.90;;;;;;4987791;28;20031;-83
2021/05/17 10:51:19;;;;;;;2.30;0.52;;;14.60;99.90;;;;;;4987283;28;20030;-85
2021/05/17 10:53:55;;;;;;;1.23;0.40;;;15.00;99.90;;;;;;5003812;28;20098;-86
2021/05/17 10:56:54;;;;;;;2.28;0.40;;;15.60;99.90;;;;;;4988037;28;20027;-86
2021/05/17 11:02:28;;;;;;;2.65;0.70;;;15.10;99.90;;;;;;5002756;28;20042;-82
2021/05/17 11:07:23;;;;;;;2.25;0.40;;;14.90;99.90;;;;;;4970282;28;20035;-84
2021/05/17 11:09:53;;;;;;;2.33;0.50;;;15.00;99.90;;;;;;4984993;28;20135;-82
2021/05/17 11:12:24;;;;;;;1.98;0.50;;;14.60;99.90;;;;;;4987772;28;20090;-83
2021/05/17 11:15:13;;;;;;;1.30;0.40;;;14.80;99.90;;;;;;5002456;28;20065;-83
2021/05/17 11:17:54;;;;;;;0.90;0.40;;;14.80;99.90;;;;;;4985896;28;20027;-81
2021/05/17 11:20:38;;;;;;;1.75;0.40;;;14.90;99.90;;;;;;4987250;28;20047;-82
2021/05/17 11:23:12;;;;;;;0.88;0.30;;;15.00;99.90;;;;;;5001771;28;20094;-81
2021/05/17 11:25:44;;;;;;;1.10;0.20;;;15.00;99.90;;;;;;4986640;28;20039;-81
2021/05/17 11:28:10;;;;;;;0.65;0.20;;;14.80;99.90;;;;;;5001720;28;20081;-82
2021/05/17 11:30:38;;;;;;;0.57;0.20;;;15.10;99.90;;;;;;4985864;28;20053;-82
2021/05/17 11:33:16;;;;;;;1.55;0.20;;;15.20;99.90;;;;;;5001796;28;20049;-82
2021/05/17 11:36:07;;;;;;;1.95;0.40;;;15.30;99.90;;;;;;5001514;28;20038;-82
2021/05/17 11:38:33;;;;;;;1.75;0.47;;;15.00;99.90;;;;;;4986004;28;20035;-80
2021/05/17 11:40:58;;;;;;;1.52;0.50;;;14.70;99.90;;;;;;4985107;28;20046;-81
2021/05/17 11:43:24;;;;;;;1.48;0.32;;;15.00;99.90;;;;;;5001662;28;20066;-80
2021/05/17 11:45:50;;;;;;;1.33;0.30;;;15.60;99.90;;;;;;5001603;28;20475;-81
2021/05/17 11:48:15;;;;;;;1.63;0.30;;;15.80;99.90;;;;;;5000822;28;20022;-81
2021/05/17 11:50:41;;;;;;;2.28;0.57;;;16.20;99.90;;;;;;5001636;28;20038;-82
2021/05/17 11:53:14;;;;;;;2.42;0.70;;;15.60;99.90;;;;;;5001489;28;20027;-82
2021/05/17 11:55:51;;;;;;;2.40;0.50;;;14.80;99.90;;;;;;4985127;28;20035;-81
2021/05/17 11:58:24;;;;;;;1.20;0.40;;;14.60;99.90;;;;;;5001144;28;20027;-82
2021/05/17 12:01:17;;;;;;;1.60;0.50;;;14.50;99.90;;;;;;5001363;28;20125;-81
2021/05/17 12:03:44;;;;;;;0.82;0.20;;;14.60;99.90;;;;;;4984949;28;20256;-81
2021/05/17 12:06:09;;;;;;;1.45;0.10;;;14.60;99.90;;;;;;4985170;28;20131;-81
2021/05/17 12:08:38;;;;;;;0.60;0.10;;;14.30;99.90;;;;;;4986188;28;20054;-81
2021/05/17 12:11:12;;;;;;;3.50;0.30;;;14.50;99.90;;;;;;4984867;28;20043;-81
2021/05/17 12:13:47;;;;;;;1.40;0.35;;;14.20;99.90;;;;;;4986183;28;20038;-81
2021/05/17 12:16:27;;;;;;;1.60;0.40;;;14.10;99.90;;;;;;4984819;28;20049;-82
2021/05/17 12:18:58;;;;;;;1.95;0.40;;;14.50;99.90;;;;;;5000883;28;20510;-80
2021/05/17 12:21:30;;;;;;;1.77;0.55;;;15.10;99.90;;;;;;5001067;28;20039;-82
2021/05/17 12:23:56;;;;;;;1.73;0.60;;;15.00;99.90;;;;;;4985669;28;20057;-81
2021/05/17 12:26:21;;;;;;;1.52;0.50;;;14.70;99.90;;;;;;4984810;28;20030;-81
2021/05/17 12:28:49;;;;;;;2.00;0.40;;;14.50;99.90;;;;;;4986109;28;20038;-81
2021/05/17 12:31:23;;;;;;;2.10;0.47;;;14.70;99.90;;;;;;4986152;28;20042;-82
2021/05/17 12:33:49;;;;;;;1.65;0.50;;;14.40;99.90;;;;;;5001669;28;20046;-81
2021/05/17 12:36:15;;;;;;;1.58;0.50;;;14.60;99.90;;;;;;5000750;28;20046;-82
2021/05/17 12:38:45;;;;;;;2.00;0.70;;;14.80;99.90;;;;;;5000315;28;20050;-82
2021/05/17 12:41:34;;;;;;;2.58;0.70;;;14.60;99.90;;;;;;4968473;28;20077;-81
2021/05/17 12:44:01;;;;;;;3.22;1.20;;;14.90;99.90;;;;;;4989068;28;20042;-81
2021/05/17 12:46:28;;;;;;;2.97;0.80;;;15.30;99.90;;;;;;4984828;28;20057;-81
2021/05/17 12:48:56;;;;;;;2.05;0.50;;;16.10;99.90;;;;;;4985808;28;20035;-82
2021/05/17 12:51:29;;;;;;;2.72;0.82;;;16.80;99.90;;;;;;5000905;28;20035;-80
2021/05/17 12:54:11;;;;;;;1.80;0.98;;;16.20;99.90;;;;;;5000603;28;20049;-81
2021/05/17 12:56:37;;;;;;;2.65;1.60;;;16.20;99.90;;;;;;4985819;28;20065;-81
2021/05/17 12:59:14;;;;;;;2.85;1.13;;;16.90;99.90;;;;;;4985629;28;20038;-81
2021/05/17 13:01:41;;;;;;;2.53;1.15;;;16.60;99.90;;;;;;5003963;28;20115;-79
2021/05/17 13:04:08;;;;;;;2.47;1.23;;;15.30;99.90;;;;;;5004433;28;20141;-80
2021/05/17 13:06:33;;;;;;;2.30;1.42;;;15.10;99.90;;;;;;4989482;28;20047;-82
2021/05/17 13:09:06;;;;;;;4.60;2.30;;;14.50;99.90;;;;;;4989048;28;20057;-81
2021/05/17 13:11:36;;;;;;;3.47;2.08;;;14.00;99.90;;;;;;4988255;28;20128;-82
2021/05/17 13:14:06;;;;;;;;;;;13.60;99.90;;;;;;4988674;28;20035;-82
2021/05/17 13:16:43;;;;;;;3.30;2.33;;;13.70;99.90;;;;;;4989527;28;19917;-80
2021/05/17 13:22:34;;;;;;;5.97;3.50;;;14.40;99.90;;;;;;4989321;28;20034;-81
2021/05/17 13:33:04;;;;;;;5.45;4.05;;;13.80;99.90;;;;;;5004038;28;20031;-83
2021/05/17 13:35:30;;;;;;;2.90;2.28;;;13.60;99.90;;;;;;5003873;28;20039;-81